sensor_id;sensor_type;location;lat;lon;timestamp;temperature;humidity
28175;SHT30;59417;44.788;10.334;2022-12-20T00:00:49;7.27;83.41
28175;SHT30;59417;44.788;10.334;2022-12-20T00:03:16;7.26;83.59
28175;SHT30;59417;44.788;10.334;2022-12-20T00:05:42;7.32;83.48
28175;SHT30;59417;44.788;10.334;2022-12-20T00:08:09;7.18;83.89
28175;SHT30;59417;44.788;10.334;2022-12-20T00:10:40;7.16;84.15
28175;SHT30;59417;44.788;10.334;2022-12-20T00:13:06;7.22;83.76
28175;SHT30;59417;44.788;10.334;2022-12-20T00:15:32;7.16;84.48
28175;SHT30;59417;44.788;10.334;2022-12-20T00:17:58;7.23;83.91
28175;SHT30;59417;44.788;10.334;2022-12-20T00:20:26;7.30;83.38
28175;SHT30;59417;44.788;10.334;2022-12-20T00:22:52;7.27;83.87
28175;SHT30;59417;44.788;10.334;2022-12-20T00:25:19;7.36;83.67
28175;SHT30;59417;44.788;10.334;2022-12-20T00:27:46;7.40;82.89
28175;SHT30;59417;44.788;10.334;2022-12-20T00:30:13;7.40;82.77
28175;SHT30;59417;44.788;10.334;2022-12-20T00:32:39;7.35;82.87
28175;SHT30;59417;44.788;10.334;2022-12-20T00:35:06;7.44;82.40
28175;SHT30;59417;44.788;10.334;2022-12-20T00:37:32;7.40;82.01
28175;SHT30;59417;44.788;10.334;2022-12-20T00:39:58;7.23;82.89
28175;SHT30;59417;44.788;10.334;2022-12-20T00:42:24;7.14;83.93
28175;SHT30;59417;44.788;10.334;2022-12-20T00:44:50;7.35;82.85
28175;SHT30;59417;44.788;10.334;2022-12-20T00:47:16;7.33;82.96
28175;SHT30;59417;44.788;10.334;2022-12-20T00:49:42;7.20;83.79
28175;SHT30;59417;44.788;10.334;2022-12-20T00:52:08;7.29;83.40
28175;SHT30;59417;44.788;10.334;2022-12-20T00:54:33;7.33;83.43
28175;SHT30;59417;44.788;10.334;2022-12-20T00:57:00;7.44;82.95
28175;SHT30;59417;44.788;10.334;2022-12-20T00:59:26;7.33;83.67
28175;SHT30;59417;44.788;10.334;2022-12-20T01:01:52;7.37;83.45
28175;SHT30;59417;44.788;10.334;2022-12-20T01:04:18;7.43;82.92
28175;SHT30;59417;44.788;10.334;2022-12-20T01:06:45;7.30;83.67
28175;SHT30;59417;44.788;10.334;2022-12-20T01:09:11;7.23;84.62
28175;SHT30;59417;44.788;10.334;2022-12-20T01:11:37;7.33;84.14
28175;SHT30;59417;44.788;10.334;2022-12-20T01:14:10;7.42;83.08
28175;SHT30;59417;44.788;10.334;2022-12-20T01:16:47;7.27;83.61
28175;SHT30;59417;44.788;10.334;2022-12-20T01:19:15;7.30;84.06
28175;SHT30;59417;44.788;10.334;2022-12-20T01:21:42;7.32;84.37
28175;SHT30;59417;44.788;10.334;2022-12-20T01:24:14;7.37;83.99
28175;SHT30;59417;44.788;10.334;2022-12-20T01:26:41;7.32;83.91
28175;SHT30;59417;44.788;10.334;2022-12-20T01:29:07;7.29;83.99
28175;SHT30;59417;44.788;10.334;2022-12-20T01:31:33;7.26;84.11
28175;SHT30;59417;44.788;10.334;2022-12-20T01:33:59;7.29;84.31
28175;SHT30;59417;44.788;10.334;2022-12-20T01:36:32;7.14;84.91
28175;SHT30;59417;44.788;10.334;2022-12-20T01:39:04;7.01;85.48
28175;SHT30;59417;44.788;10.334;2022-12-20T01:41:32;6.96;86.22
28175;SHT30;59417;44.788;10.334;2022-12-20T01:46:44;7.14;85.46
28175;SHT30;59417;44.788;10.334;2022-12-20T01:49:15;7.09;85.13
28175;SHT30;59417;44.788;10.334;2022-12-20T01:51:48;6.94;86.31
28175;SHT30;59417;44.788;10.334;2022-12-20T01:54:30;6.95;86.68
28175;SHT30;59417;44.788;10.334;2022-12-20T01:57:03;7.02;86.46
28175;SHT30;59417;44.788;10.334;2022-12-20T01:59:33;7.08;85.76
28175;SHT30;59417;44.788;10.334;2022-12-20T02:02:03;7.15;85.45
28175;SHT30;59417;44.788;10.334;2022-12-20T02:04:32;7.12;85.67
28175;SHT30;59417;44.788;10.334;2022-12-20T02:06:59;7.22;85.20
28175;SHT30;59417;44.788;10.334;2022-12-20T02:09:25;7.19;85.36
28175;SHT30;59417;44.788;10.334;2022-12-20T02:21:20;6.92;85.76
28175;SHT30;59417;44.788;10.334;2022-12-20T02:31:35;6.85;85.75
28175;SHT30;59417;44.788;10.334;2022-12-20T02:34:05;6.82;85.43
28175;SHT30;59417;44.788;10.334;2022-12-20T02:36:32;6.87;85.33
28175;SHT30;59417;44.788;10.334;2022-12-20T02:39:01;6.89;85.02
28175;SHT30;59417;44.788;10.334;2022-12-20T02:41:41;6.89;84.70
28175;SHT30;59417;44.788;10.334;2022-12-20T02:44:11;6.82;85.43
28175;SHT30;59417;44.788;10.334;2022-12-20T02:46:59;6.80;85.69
28175;SHT30;59417;44.788;10.334;2022-12-20T02:49:30;6.89;85.46
28175;SHT30;59417;44.788;10.334;2022-12-20T02:51:59;6.95;85.02
28175;SHT30;59417;44.788;10.334;2022-12-20T02:54:26;6.99;84.38
28175;SHT30;59417;44.788;10.334;2022-12-20T02:56:59;6.98;85.16
28175;SHT30;59417;44.788;10.334;2022-12-20T02:59:29;7.11;84.54
28175;SHT30;59417;44.788;10.334;2022-12-20T03:01:57;7.01;84.61
28175;SHT30;59417;44.788;10.334;2022-12-20T03:04:30;7.04;84.51
28175;SHT30;59417;44.788;10.334;2022-12-20T03:07:03;7.11;83.84
28175;SHT30;59417;44.788;10.334;2022-12-20T03:09:31;7.14;83.52
28175;SHT30;59417;44.788;10.334;2022-12-20T03:11:58;7.18;83.14
28175;SHT30;59417;44.788;10.334;2022-12-20T03:14:25;7.15;83.40
28175;SHT30;59417;44.788;10.334;2022-12-20T03:16:54;7.14;83.27
28175;SHT30;59417;44.788;10.334;2022-12-20T03:19:20;7.05;84.25
28175;SHT30;59417;44.788;10.334;2022-12-20T03:21:46;7.18;83.85
28175;SHT30;59417;44.788;10.334;2022-12-20T03:24:12;6.94;83.71
28175;SHT30;59417;44.788;10.334;2022-12-20T03:26:41;6.85;84.30
28175;SHT30;59417;44.788;10.334;2022-12-20T03:29:07;6.84;84.68
28175;SHT30;59417;44.788;10.334;2022-12-20T03:31:33;6.81;83.96
28175;SHT30;59417;44.788;10.334;2022-12-20T03:33:59;6.75;84.15
28175;SHT30;59417;44.788;10.334;2022-12-20T03:36:25;6.71;84.54
28175;SHT30;59417;44.788;10.334;2022-12-20T03:38:56;6.78;84.69
28175;SHT30;59417;44.788;10.334;2022-12-20T03:41:25;6.80;84.94
28175;SHT30;59417;44.788;10.334;2022-12-20T03:43:52;6.75;85.43
28175;SHT30;59417;44.788;10.334;2022-12-20T03:46:21;6.77;85.16
28175;SHT30;59417;44.788;10.334;2022-12-20T03:48:47;6.84;85.11
28175;SHT30;59417;44.788;10.334;2022-12-20T03:51:13;6.94;84.24
28175;SHT30;59417;44.788;10.334;2022-12-20T03:53:43;6.84;84.57
28175;SHT30;59417;44.788;10.334;2022-12-20T03:56:12;6.84;84.79
28175;SHT30;59417;44.788;10.334;2022-12-20T03:58:40;6.91;84.44
28175;SHT30;59417;44.788;10.334;2022-12-20T04:01:21;6.82;84.70
28175;SHT30;59417;44.788;10.334;2022-12-20T04:03:58;6.94;84.40
28175;SHT30;59417;44.788;10.334;2022-12-20T04:06:24;6.91;84.45
28175;SHT30;59417;44.788;10.334;2022-12-20T04:08:51;6.85;84.65
28175;SHT30;59417;44.788;10.334;2022-12-20T04:11:23;6.92;84.78
28175;SHT30;59417;44.788;10.334;2022-12-20T04:14:04;6.84;84.77
28175;SHT30;59417;44.788;10.334;2022-12-20T04:16:30;6.89;85.00
28175;SHT30;59417;44.788;10.334;2022-12-20T04:18:59;6.96;84.29
28175;SHT30;59417;44.788;10.334;2022-12-20T04:21:32;6.84;84.71
28175;SHT30;59417;44.788;10.334;2022-12-20T04:23:59;6.96;84.59
28175;SHT30;59417;44.788;10.334;2022-12-20T04:26:36;6.88;84.67
28175;SHT30;59417;44.788;10.334;2022-12-20T04:29:03;6.81;85.52
28175;SHT30;59417;44.788;10.334;2022-12-20T04:31:30;6.95;84.93
28175;SHT30;59417;44.788;10.334;2022-12-20T04:33:56;6.94;84.92
28175;SHT30;59417;44.788;10.334;2022-12-20T04:36:23;7.08;84.62
28175;SHT30;59417;44.788;10.334;2022-12-20T04:38:51;6.98;84.75
28175;SHT30;59417;44.788;10.334;2022-12-20T04:41:18;6.94;85.07
28175;SHT30;59417;44.788;10.334;2022-12-20T04:43:51;6.95;84.72
28175;SHT30;59417;44.788;10.334;2022-12-20T04:46:19;6.91;85.04
28175;SHT30;59417;44.788;10.334;2022-12-20T04:48:46;6.92;85.14
28175;SHT30;59417;44.788;10.334;2022-12-20T04:51:12;6.99;84.71
28175;SHT30;59417;44.788;10.334;2022-12-20T04:53:38;7.05;84.39
28175;SHT30;59417;44.788;10.334;2022-12-20T04:56:27;7.08;84.42
28175;SHT30;59417;44.788;10.334;2022-12-20T04:58:58;7.04;84.62
28175;SHT30;59417;44.788;10.334;2022-12-20T05:01:26;7.08;84.32
28175;SHT30;59417;44.788;10.334;2022-12-20T05:03:53;7.08;84.03
28175;SHT30;59417;44.788;10.334;2022-12-20T05:06:20;7.09;84.46
28175;SHT30;59417;44.788;10.334;2022-12-20T05:08:46;7.15;83.83
28175;SHT30;59417;44.788;10.334;2022-12-20T05:11:12;7.12;83.89
28175;SHT30;59417;44.788;10.334;2022-12-20T05:13:38;7.11;84.21
28175;SHT30;59417;44.788;10.334;2022-12-20T05:16:06;7.16;83.67
28175;SHT30;59417;44.788;10.334;2022-12-20T05:18:33;7.16;83.43
28175;SHT30;59417;44.788;10.334;2022-12-20T05:21:03;7.20;83.19
28175;SHT30;59417;44.788;10.334;2022-12-20T05:23:50;7.25;82.77
28175;SHT30;59417;44.788;10.334;2022-12-20T05:26:53;7.23;82.78
28175;SHT30;59417;44.788;10.334;2022-12-20T05:29:20;7.23;82.77
28175;SHT30;59417;44.788;10.334;2022-12-20T05:31:46;7.25;82.50
28175;SHT30;59417;44.788;10.334;2022-12-20T05:34:12;7.26;82.32
28175;SHT30;59417;44.788;10.334;2022-12-20T05:36:40;7.20;82.46
28175;SHT30;59417;44.788;10.334;2022-12-20T05:39:07;7.18;82.90
28175;SHT30;59417;44.788;10.334;2022-12-20T05:41:37;7.27;82.34
28175;SHT30;59417;44.788;10.334;2022-12-20T05:44:05;7.29;82.31
28175;SHT30;59417;44.788;10.334;2022-12-20T05:46:36;7.22;82.62
28175;SHT30;59417;44.788;10.334;2022-12-20T05:49:07;7.12;82.88
28175;SHT30;59417;44.788;10.334;2022-12-20T05:51:34;7.08;83.77
28175;SHT30;59417;44.788;10.334;2022-12-20T05:54:10;7.14;83.00
28175;SHT30;59417;44.788;10.334;2022-12-20T05:56:48;7.11;83.19
28175;SHT30;59417;44.788;10.334;2022-12-20T05:59:18;7.09;82.98
28175;SHT30;59417;44.788;10.334;2022-12-20T06:01:46;7.18;83.04
28175;SHT30;59417;44.788;10.334;2022-12-20T06:04:16;7.18;82.50
28175;SHT30;59417;44.788;10.334;2022-12-20T06:06:45;7.11;82.46
28175;SHT30;59417;44.788;10.334;2022-12-20T06:09:19;7.14;82.54
28175;SHT30;59417;44.788;10.334;2022-12-20T06:11:56;7.14;82.37
28175;SHT30;59417;44.788;10.334;2022-12-20T06:14:22;7.14;82.42
28175;SHT30;59417;44.788;10.334;2022-12-20T06:16:55;7.22;81.70
28175;SHT30;59417;44.788;10.334;2022-12-20T06:19:21;7.14;82.32
28175;SHT30;59417;44.788;10.334;2022-12-20T06:21:51;7.14;82.25
28175;SHT30;59417;44.788;10.334;2022-12-20T06:24:25;7.12;82.63
28175;SHT30;59417;44.788;10.334;2022-12-20T06:27:04;7.11;82.22
28175;SHT30;59417;44.788;10.334;2022-12-20T06:29:47;7.12;82.21
28175;SHT30;59417;44.788;10.334;2022-12-20T06:33:04;6.99;82.96
28175;SHT30;59417;44.788;10.334;2022-12-20T06:35:39;7.14;82.59
28175;SHT30;59417;44.788;10.334;2022-12-20T06:38:06;7.09;83.18
28175;SHT30;59417;44.788;10.334;2022-12-20T06:40:58;7.23;81.82
28175;SHT30;59417;44.788;10.334;2022-12-20T06:43:54;7.08;82.20
28175;SHT30;59417;44.788;10.334;2022-12-20T06:46:24;6.99;82.70
28175;SHT30;59417;44.788;10.334;2022-12-20T06:48:55;7.01;82.54
28175;SHT30;59417;44.788;10.334;2022-12-20T06:51:22;6.98;83.24
28175;SHT30;59417;44.788;10.334;2022-12-20T06:53:53;6.98;83.55
28175;SHT30;59417;44.788;10.334;2022-12-20T06:56:20;7.09;81.97
28175;SHT30;59417;44.788;10.334;2022-12-20T06:58:47;7.08;82.13
28175;SHT30;59417;44.788;10.334;2022-12-20T07:01:13;7.08;82.65
28175;SHT30;59417;44.788;10.334;2022-12-20T07:03:39;7.15;82.29
28175;SHT30;59417;44.788;10.334;2022-12-20T07:06:09;7.27;81.53
28175;SHT30;59417;44.788;10.334;2022-12-20T07:08:35;7.12;81.95
28175;SHT30;59417;44.788;10.334;2022-12-20T07:11:11;7.05;82.09
28175;SHT30;59417;44.788;10.334;2022-12-20T07:13:37;6.92;83.09
28175;SHT30;59417;44.788;10.334;2022-12-20T07:16:04;6.98;83.12
28175;SHT30;59417;44.788;10.334;2022-12-20T07:18:33;7.16;82.09
28175;SHT30;59417;44.788;10.334;2022-12-20T07:21:10;7.20;81.90
28175;SHT30;59417;44.788;10.334;2022-12-20T07:23:58;7.01;83.04
28175;SHT30;59417;44.788;10.334;2022-12-20T07:33:01;7.22;81.64
28175;SHT30;59417;44.788;10.334;2022-12-20T07:35:43;7.08;82.34
28175;SHT30;59417;44.788;10.334;2022-12-20T07:38:12;7.06;82.64
28175;SHT30;59417;44.788;10.334;2022-12-20T07:40:40;7.22;81.71
28175;SHT30;59417;44.788;10.334;2022-12-20T07:43:08;7.16;81.41
28175;SHT30;59417;44.788;10.334;2022-12-20T07:45:36;7.15;81.64
28175;SHT30;59417;44.788;10.334;2022-12-20T07:48:07;7.06;81.51
28175;SHT30;59417;44.788;10.334;2022-12-20T07:50:38;6.96;81.77
28175;SHT30;59417;44.788;10.334;2022-12-20T07:53:07;6.92;82.03
28175;SHT30;59417;44.788;10.334;2022-12-20T07:55:37;6.95;82.47
28175;SHT30;59417;44.788;10.334;2022-12-20T07:58:07;6.92;82.79
28175;SHT30;59417;44.788;10.334;2022-12-20T08:00:35;7.01;82.40
28175;SHT30;59417;44.788;10.334;2022-12-20T08:03:09;7.04;82.96
28175;SHT30;59417;44.788;10.334;2022-12-20T08:05:45;7.08;81.48
28175;SHT30;59417;44.788;10.334;2022-12-20T08:08:13;7.06;81.91
28175;SHT30;59417;44.788;10.334;2022-12-20T08:10:39;6.87;82.48
28175;SHT30;59417;44.788;10.334;2022-12-20T08:13:06;6.77;83.18
28175;SHT30;59417;44.788;10.334;2022-12-20T08:15:34;6.81;83.78
28175;SHT30;59417;44.788;10.334;2022-12-20T08:18:01;7.02;82.65
28175;SHT30;59417;44.788;10.334;2022-12-20T08:20:27;7.05;82.63
28175;SHT30;59417;44.788;10.334;2022-12-20T08:22:53;6.92;83.01
28175;SHT30;59417;44.788;10.334;2022-12-20T08:25:19;6.80;83.37
28175;SHT30;59417;44.788;10.334;2022-12-20T08:27:55;6.67;84.02
28175;SHT30;59417;44.788;10.334;2022-12-20T08:30:21;6.58;84.49
28175;SHT30;59417;44.788;10.334;2022-12-20T08:32:51;6.75;83.09
28175;SHT30;59417;44.788;10.334;2022-12-20T08:35:22;6.75;83.50
28175;SHT30;59417;44.788;10.334;2022-12-20T08:37:54;6.82;83.77
28175;SHT30;59417;44.788;10.334;2022-12-20T08:40:21;6.67;83.39
28175;SHT30;59417;44.788;10.334;2022-12-20T08:42:58;6.68;84.02
28175;SHT30;59417;44.788;10.334;2022-12-20T08:45:26;6.63;84.11
28175;SHT30;59417;44.788;10.334;2022-12-20T08:48:05;6.64;84.14
28175;SHT30;59417;44.788;10.334;2022-12-20T08:50:32;6.78;83.38
28175;SHT30;59417;44.788;10.334;2022-12-20T08:53:01;6.74;84.72
28175;SHT30;59417;44.788;10.334;2022-12-20T08:55:31;6.85;84.36
28175;SHT30;59417;44.788;10.334;2022-12-20T08:57:57;6.95;83.21
28175;SHT30;59417;44.788;10.334;2022-12-20T09:00:23;7.15;82.43
28175;SHT30;59417;44.788;10.334;2022-12-20T09:02:50;7.14;82.61
28175;SHT30;59417;44.788;10.334;2022-12-20T09:05:16;7.18;82.55
28175;SHT30;59417;44.788;10.334;2022-12-20T09:07:42;7.18;82.36
28175;SHT30;59417;44.788;10.334;2022-12-20T09:10:09;7.30;81.42
28175;SHT30;59417;44.788;10.334;2022-12-20T09:12:41;7.26;82.02
28175;SHT30;59417;44.788;10.334;2022-12-20T09:15:08;7.29;81.98
28175;SHT30;59417;44.788;10.334;2022-12-20T09:17:38;7.32;81.71
28175;SHT30;59417;44.788;10.334;2022-12-20T09:20:08;7.29;81.75
28175;SHT30;59417;44.788;10.334;2022-12-20T09:22:44;7.30;81.92
28175;SHT30;59417;44.788;10.334;2022-12-20T09:25:11;7.32;81.73
28175;SHT30;59417;44.788;10.334;2022-12-20T09:27:37;7.33;82.35
28175;SHT30;59417;44.788;10.334;2022-12-20T09:30:04;7.44;81.30
28175;SHT30;59417;44.788;10.334;2022-12-20T09:32:31;7.51;80.59
28175;SHT30;59417;44.788;10.334;2022-12-20T09:34:58;7.44;81.20
28175;SHT30;59417;44.788;10.334;2022-12-20T09:37:47;7.46;81.27
28175;SHT30;59417;44.788;10.334;2022-12-20T09:43:39;7.49;82.01
28175;SHT30;59417;44.788;10.334;2022-12-20T09:46:06;7.66;81.35
28175;SHT30;59417;44.788;10.334;2022-12-20T09:48:37;7.78;80.16
28175;SHT30;59417;44.788;10.334;2022-12-20T09:54:15;7.98;79.52
28175;SHT30;59417;44.788;10.334;2022-12-20T09:59:24;7.88;79.74
28175;SHT30;59417;44.788;10.334;2022-12-20T10:01:53;7.81;80.20
28175;SHT30;59417;44.788;10.334;2022-12-20T10:04:27;7.95;80.05
28175;SHT30;59417;44.788;10.334;2022-12-20T10:15:39;8.00;78.91
28175;SHT30;59417;44.788;10.334;2022-12-20T10:21:15;7.95;79.13
28175;SHT30;59417;44.788;10.334;2022-12-20T10:24:09;7.87;79.44
28175;SHT30;59417;44.788;10.334;2022-12-20T10:26:37;7.93;79.15
28175;SHT30;59417;44.788;10.334;2022-12-20T10:29:03;7.80;78.93
28175;SHT30;59417;44.788;10.334;2022-12-20T10:31:29;7.78;80.19
28175;SHT30;59417;44.788;10.334;2022-12-20T10:33:55;7.81;80.59
28175;SHT30;59417;44.788;10.334;2022-12-20T10:36:26;8.04;78.68
28175;SHT30;59417;44.788;10.334;2022-12-20T10:39:10;7.98;79.46
28175;SHT30;59417;44.788;10.334;2022-12-20T10:44:17;7.94;79.24
28175;SHT30;59417;44.788;10.334;2022-12-20T10:46:56;7.88;79.45
28175;SHT30;59417;44.788;10.334;2022-12-20T10:49:36;7.81;80.02
28175;SHT30;59417;44.788;10.334;2022-12-20T10:54:33;7.73;81.59
28175;SHT30;59417;44.788;10.334;2022-12-20T10:57:20;7.88;80.03
28175;SHT30;59417;44.788;10.334;2022-12-20T10:59:53;7.83;80.93
28175;SHT30;59417;44.788;10.334;2022-12-20T11:05:02;7.80;81.60
28175;SHT30;59417;44.788;10.334;2022-12-20T11:07:32;7.83;80.75
28175;SHT30;59417;44.788;10.334;2022-12-20T11:10:35;7.88;80.50
28175;SHT30;59417;44.788;10.334;2022-12-20T11:12:59;8.10;78.97
28175;SHT30;59417;44.788;10.334;2022-12-20T11:15:31;8.05;78.90
28175;SHT30;59417;44.788;10.334;2022-12-20T11:18:21;7.95;79.09
28175;SHT30;59417;44.788;10.334;2022-12-20T11:20:59;8.15;78.53
28175;SHT30;59417;44.788;10.334;2022-12-20T11:23:41;8.11;78.15
28175;SHT30;59417;44.788;10.334;2022-12-20T11:26:18;7.93;78.92
28175;SHT30;59417;44.788;10.334;2022-12-20T11:31:39;7.76;80.16
28175;SHT30;59417;44.788;10.334;2022-12-20T11:53:47;7.84;82.36
28175;SHT30;59417;44.788;10.334;2022-12-20T11:56:20;7.80;82.39
28175;SHT30;59417;44.788;10.334;2022-12-20T11:58:59;7.73;82.85
28175;SHT30;59417;44.788;10.334;2022-12-20T12:01:39;7.73;83.11
28175;SHT30;59417;44.788;10.334;2022-12-20T12:04:36;7.90;81.02
28175;SHT30;59417;44.788;10.334;2022-12-20T12:07:35;7.84;81.52
28175;SHT30;59417;44.788;10.334;2022-12-20T12:10:19;7.84;82.22
28175;SHT30;59417;44.788;10.334;2022-12-20T12:12:46;7.80;82.43
28175;SHT30;59417;44.788;10.334;2022-12-20T12:20:32;8.28;80.23
28175;SHT30;59417;44.788;10.334;2022-12-20T12:26:19;8.01;81.16
28175;SHT30;59417;44.788;10.334;2022-12-20T12:28:53;8.07;81.07
28175;SHT30;59417;44.788;10.334;2022-12-20T12:31:27;7.91;81.62
28175;SHT30;59417;44.788;10.334;2022-12-20T12:37:48;8.14;80.72
28175;SHT30;59417;44.788;10.334;2022-12-20T12:46:02;8.10;81.10
28175;SHT30;59417;44.788;10.334;2022-12-20T12:48:39;8.01;81.74
28175;SHT30;59417;44.788;10.334;2022-12-20T12:51:07;8.01;81.36
28175;SHT30;59417;44.788;10.334;2022-12-20T12:53:42;8.10;81.16
28175;SHT30;59417;44.788;10.334;2022-12-20T13:07:49;8.05;80.46
28175;SHT30;59417;44.788;10.334;2022-12-20T13:13:21;7.95;81.12
28175;SHT30;59417;44.788;10.334;2022-12-20T13:16:08;7.87;82.07
28175;SHT30;59417;44.788;10.334;2022-12-20T13:18:35;7.86;82.92
28175;SHT30;59417;44.788;10.334;2022-12-20T13:21:29;7.98;82.08
28175;SHT30;59417;44.788;10.334;2022-12-20T13:27:13;8.04;81.31
28175;SHT30;59417;44.788;10.334;2022-12-20T13:29:55;8.10;81.17
28175;SHT30;59417;44.788;10.334;2022-12-20T13:35:26;7.94;81.47
28175;SHT30;59417;44.788;10.334;2022-12-20T13:37:57;7.93;81.48
28175;SHT30;59417;44.788;10.334;2022-12-20T13:40:37;7.97;80.40
28175;SHT30;59417;44.788;10.334;2022-12-20T13:45:46;7.98;80.01
28175;SHT30;59417;44.788;10.334;2022-12-20T13:48:19;7.97;79.94
28175;SHT30;59417;44.788;10.334;2022-12-20T13:50:54;7.87;80.36
28175;SHT30;59417;44.788;10.334;2022-12-20T13:53:23;7.83;80.24
28175;SHT30;59417;44.788;10.334;2022-12-20T13:55:52;7.86;80.88
28175;SHT30;59417;44.788;10.334;2022-12-20T13:58:23;7.86;80.89
28175;SHT30;59417;44.788;10.334;2022-12-20T14:00:51;7.83;81.26
28175;SHT30;59417;44.788;10.334;2022-12-20T14:03:25;7.78;81.69
28175;SHT30;59417;44.788;10.334;2022-12-20T14:05:57;7.80;82.16
28175;SHT30;59417;44.788;10.334;2022-12-20T14:08:32;7.86;81.81
28175;SHT30;59417;44.788;10.334;2022-12-20T14:11:19;7.78;81.99
28175;SHT30;59417;44.788;10.334;2022-12-20T14:16:19;7.70;82.41
28175;SHT30;59417;44.788;10.334;2022-12-20T14:19:05;7.81;82.37
28175;SHT30;59417;44.788;10.334;2022-12-20T14:21:38;7.77;82.16
28175;SHT30;59417;44.788;10.334;2022-12-20T14:24:17;7.78;82.38
28175;SHT30;59417;44.788;10.334;2022-12-20T14:26:47;7.90;81.57
28175;SHT30;59417;44.788;10.334;2022-12-20T14:29:29;7.84;81.77
28175;SHT30;59417;44.788;10.334;2022-12-20T14:31:57;7.80;81.65
28175;SHT30;59417;44.788;10.334;2022-12-20T14:34:33;7.76;82.17
28175;SHT30;59417;44.788;10.334;2022-12-20T14:37:32;7.91;81.99
28175;SHT30;59417;44.788;10.334;2022-12-20T14:42:49;7.94;81.53
28175;SHT30;59417;44.788;10.334;2022-12-20T14:45:18;7.97;81.39
28175;SHT30;59417;44.788;10.334;2022-12-20T14:48:33;7.98;81.36
28175;SHT30;59417;44.788;10.334;2022-12-20T14:50:55;7.83;81.43
28175;SHT30;59417;44.788;10.334;2022-12-20T14:53:28;7.78;81.61
28175;SHT30;59417;44.788;10.334;2022-12-20T14:55:55;7.81;81.39
28175;SHT30;59417;44.788;10.334;2022-12-20T14:58:32;7.80;80.64
28175;SHT30;59417;44.788;10.334;2022-12-20T15:01:01;7.67;80.92
28175;SHT30;59417;44.788;10.334;2022-12-20T15:03:57;7.68;81.09
28175;SHT30;59417;44.788;10.334;2022-12-20T15:06:38;7.73;81.10
28175;SHT30;59417;44.788;10.334;2022-12-20T15:09:05;7.77;80.90
28175;SHT30;59417;44.788;10.334;2022-12-20T15:11:35;7.74;81.67
28175;SHT30;59417;44.788;10.334;2022-12-20T15:14:20;7.77;81.52
28175;SHT30;59417;44.788;10.334;2022-12-20T15:17:37;7.71;81.99
28175;SHT30;59417;44.788;10.334;2022-12-20T15:19:59;7.81;81.62
28175;SHT30;59417;44.788;10.334;2022-12-20T15:22:31;7.80;82.10
28175;SHT30;59417;44.788;10.334;2022-12-20T15:25:01;8.02;81.31
28175;SHT30;59417;44.788;10.334;2022-12-20T15:27:35;8.02;80.86
28175;SHT30;59417;44.788;10.334;2022-12-20T15:30:04;7.95;81.75
28175;SHT30;59417;44.788;10.334;2022-12-20T15:32:37;7.81;82.57
28175;SHT30;59417;44.788;10.334;2022-12-20T15:35:15;7.80;82.65
28175;SHT30;59417;44.788;10.334;2022-12-20T15:37:57;7.95;81.92
28175;SHT30;59417;44.788;10.334;2022-12-20T15:40:42;8.05;81.37
28175;SHT30;59417;44.788;10.334;2022-12-20T15:43:15;7.97;82.20
28175;SHT30;59417;44.788;10.334;2022-12-20T15:45:43;7.98;81.46
28175;SHT30;59417;44.788;10.334;2022-12-20T15:48:18;7.81;82.37
28175;SHT30;59417;44.788;10.334;2022-12-20T15:51:36;7.90;81.05
28175;SHT30;59417;44.788;10.334;2022-12-20T15:54:06;7.81;80.99
28175;SHT30;59417;44.788;10.334;2022-12-20T16:00:21;7.71;80.81
28175;SHT30;59417;44.788;10.334;2022-12-20T16:02:54;7.63;81.50
28175;SHT30;59417;44.788;10.334;2022-12-20T16:05:27;7.74;81.41
28175;SHT30;59417;44.788;10.334;2022-12-20T16:07:52;7.84;80.87
28175;SHT30;59417;44.788;10.334;2022-12-20T16:10:18;7.81;81.20
28175;SHT30;59417;44.788;10.334;2022-12-20T16:12:44;7.97;80.20
28175;SHT30;59417;44.788;10.334;2022-12-20T16:15:22;7.86;81.05
28175;SHT30;59417;44.788;10.334;2022-12-20T16:17:50;7.86;81.42
28175;SHT30;59417;44.788;10.334;2022-12-20T16:20:16;7.78;81.52
28175;SHT30;59417;44.788;10.334;2022-12-20T16:22:45;7.86;81.46
28175;SHT30;59417;44.788;10.334;2022-12-20T16:25:35;7.90;81.48
28175;SHT30;59417;44.788;10.334;2022-12-20T16:28:08;7.90;81.71
28175;SHT30;59417;44.788;10.334;2022-12-20T16:30:35;7.94;81.25
28175;SHT30;59417;44.788;10.334;2022-12-20T16:33:16;7.94;81.84
28175;SHT30;59417;44.788;10.334;2022-12-20T16:36:00;7.94;82.12
28175;SHT30;59417;44.788;10.334;2022-12-20T16:38:31;7.84;82.91
28175;SHT30;59417;44.788;10.334;2022-12-20T16:41:10;7.90;82.89
28175;SHT30;59417;44.788;10.334;2022-12-20T16:43:38;7.93;82.34
28175;SHT30;59417;44.788;10.334;2022-12-20T16:46:15;7.78;81.77
28175;SHT30;59417;44.788;10.334;2022-12-20T16:48:43;7.73;81.70
28175;SHT30;59417;44.788;10.334;2022-12-20T16:54:29;7.73;80.76
28175;SHT30;59417;44.788;10.334;2022-12-20T16:57:24;7.56;81.10
28175;SHT30;59417;44.788;10.334;2022-12-20T16:59:50;7.49;81.24
28175;SHT30;59417;44.788;10.334;2022-12-20T17:02:32;7.51;81.04
28175;SHT30;59417;44.788;10.334;2022-12-20T17:05:02;7.57;81.05
28175;SHT30;59417;44.788;10.334;2022-12-20T17:07:34;7.59;81.42
28175;SHT30;59417;44.788;10.334;2022-12-20T17:10:01;7.61;81.74
28175;SHT30;59417;44.788;10.334;2022-12-20T17:12:56;7.54;82.46
28175;SHT30;59417;44.788;10.334;2022-12-20T17:15:47;7.53;83.30
28175;SHT30;59417;44.788;10.334;2022-12-20T17:18:13;7.68;82.45
28175;SHT30;59417;44.788;10.334;2022-12-20T17:20:59;7.66;82.40
28175;SHT30;59417;44.788;10.334;2022-12-20T17:23:30;7.67;83.03
28175;SHT30;59417;44.788;10.334;2022-12-20T17:26:18;7.64;82.71
28175;SHT30;59417;44.788;10.334;2022-12-20T17:29:09;7.61;83.42
28175;SHT30;59417;44.788;10.334;2022-12-20T17:31:41;7.80;82.97
28175;SHT30;59417;44.788;10.334;2022-12-20T17:34:26;7.68;83.09
28175;SHT30;59417;44.788;10.334;2022-12-20T17:36:55;7.70;83.45
28175;SHT30;59417;44.788;10.334;2022-12-20T17:39:23;7.86;82.68
28175;SHT30;59417;44.788;10.334;2022-12-20T17:41:54;7.77;83.50
28175;SHT30;59417;44.788;10.334;2022-12-20T17:44:24;7.78;83.52
28175;SHT30;59417;44.788;10.334;2022-12-20T17:46:55;7.71;84.21
28175;SHT30;59417;44.788;10.334;2022-12-20T17:49:21;7.87;82.89
28175;SHT30;59417;44.788;10.334;2022-12-20T17:51:48;7.76;82.81
28175;SHT30;59417;44.788;10.334;2022-12-20T17:54:21;7.81;83.24
28175;SHT30;59417;44.788;10.334;2022-12-20T17:56:53;7.76;82.85
28175;SHT30;59417;44.788;10.334;2022-12-20T17:59:24;7.71;83.02
28175;SHT30;59417;44.788;10.334;2022-12-20T18:01:52;7.67;82.83
28175;SHT30;59417;44.788;10.334;2022-12-20T18:04:39;7.60;83.47
28175;SHT30;59417;44.788;10.334;2022-12-20T18:07:09;7.63;83.34
28175;SHT30;59417;44.788;10.334;2022-12-20T18:09:38;7.54;83.51
28175;SHT30;59417;44.788;10.334;2022-12-20T18:12:04;7.61;83.39